Latest Weather Observations for Parndana

IDS60801

Issued at 7:01 pm CST Sunday 20 August 2017 (issued every 30 minutes, with the page automatically refreshed every 10 minutes)

About weather observations | Map of weather stations | Latest weather observations for SA | Other Formats
Station Details ID: 022843 Name: PARNDANA CFS AWS Lat: -35.79 Lon: 137.25 Height: 165.0 m
Data from the previous 72 hours. | See also: Recent months at Parndana
Date/Time
CST
Temp
°C
App
Temp
°C
Dew
Point
°C
Rel
Hum
%
Delta-T
°C
Wind Press
QNH
hPa
Press
MSL
hPa
Rain since
9am
mm
Dir  Spd
km/h
Gust
km/h
Spd
kts
Gust
kts
20/07:00pm 8.1 2.1 7.2 94 0.4 NNE 28 39 15 21 - - 6.0
20/06:50pm 8.0 2.0 7.2 95 0.4 NNE 28 48 15 26 - - 5.6
20/06:30pm 7.8 2.9 7.1 95 0.3 NNE 22 32 12 17 - - 5.2
20/06:00pm 7.8 2.1 6.7 93 0.5 NNE 26 39 14 21 - - 4.6
20/05:30pm 7.8 0.7 6.6 92 0.6 NNE 33 54 18 29 - - 3.6
20/05:25pm 7.8 0.9 6.6 92 0.6 NNE 32 54 17 29 - - 3.6
20/05:00pm 8.4 2.7 6.7 89 0.8 NNE 26 44 14 24 - - 1.8
20/04:30pm 8.8 4.2 6.6 86 1.0 NNE 20 32 11 17 - - 1.2
20/04:00pm 9.2 4.6 6.6 84 1.2 NNE 20 30 11 16 - - 0.8
20/03:30pm 9.9 4.6 6.8 81 1.5 NNE 24 35 13 19 - - 0.6
20/03:00pm 10.1 6.2 7.3 83 1.3 NNE 17 24 9 13 - - 0.4
20/02:30pm 10.2 5.9 6.9 80 1.6 NNE 19 28 10 15 - - 0.2
20/02:00pm 10.4 5.4 6.4 76 1.9 NNE 22 32 12 17 - - 0.0
20/01:30pm 10.7 4.9 6.1 73 2.2 NNE 26 37 14 20 - - 0.0
20/01:00pm 10.8 5.4 6.2 73 2.2 NNE 24 33 13 18 - - 0.0
20/12:30pm 10.8 4.9 5.6 70 2.4 NNE 26 33 14 18 - - 0.0
20/12:00pm 11.5 3.9 5.8 68 2.7 NNE 35 48 19 26 - - 0.0
20/11:30am 11.3 4.8 6.4 72 2.3 NNE 30 43 16 23 - - 0.0
20/11:00am 11.7 5.6 6.4 70 2.5 NE 28 37 15 20 - - 0.0
20/10:30am 10.8 4.1 5.8 71 2.3 NNE 30 39 16 21 - - 0.0
20/10:00am 10.6 4.3 5.8 72 2.2 NNE 28 43 15 23 - - 0.0
20/09:30am 11.0 4.5 6.4 73 2.2 NNE 30 44 16 24 - - 0.0
20/09:00am 10.2 4.4 6.2 76 1.9 NNE 26 37 14 20 - - 0.4
20/08:30am 9.6 4.9 6.1 79 1.6 NE 20 32 11 17 - - 0.4
20/08:00am 9.2 4.6 5.6 78 1.7 NE 19 28 10 15 - - 0.4
20/07:30am 8.8 4.5 5.2 78 1.6 NNE 17 28 9 15 - - 0.4
20/07:00am 8.6 4.0 5.4 80 1.5 NNE 19 26 10 14 - - 0.4
20/06:30am 8.2 4.3 5.5 83 1.2 NNE 15 19 8 10 - - 0.4
20/06:00am 7.7 4.2 5.3 85 1.1 NNE 13 15 7 8 - - 0.4
20/05:30am 7.8 4.4 5.8 87 0.9 NNE 13 19 7 10 - - 0.4
20/05:00am 7.6 3.9 6.2 91 0.6 NE 15 17 8 9 - - 0.4
20/04:30am 6.8 3.7 5.6 92 0.5 NE 11 15 6 8 - - 0.4
20/04:00am 5.7 3.1 4.2 90 0.6 NNE 7 9 4 5 - - 0.4
20/03:30am 6.1 3.2 4.4 89 0.7 NNE 9 13 5 7 - - 0.4
20/03:00am 6.7 3.5 5.2 90 0.7 NE 11 15 6 8 - - 0.4
20/02:30am 5.2 2.1 3.5 89 0.7 NE 9 11 5 6 - - 0.4
20/02:00am 5.6 2.9 3.8 88 0.8 NE 7 9 4 5 - - 0.4
20/01:30am 5.5 2.8 3.8 89 0.7 NE 7 9 4 5 - - 0.4
20/01:00am 5.4 2.7 3.9 90 0.6 NE 7 11 4 6 - - 0.4
20/12:30am 5.1 2.0 3.6 90 0.6 NE 9 9 5 5 - - 0.4
20/12:00am 5.8 3.4 4.1 89 0.7 NE 6 7 3 4 - - 0.4
 
Date/Time
CST
Temp
°C
App
Temp
°C
Dew
Point
°C
Rel
Hum
%
Delta-T
°C
Wind Press
QNH
hPa
Press
MSL
hPa
Rain since
9am
mm
Dir  Spd
km/h
Gust
km/h
Spd
kts
Gust
kts
19/11:30pm 6.5 4.0 4.5 87 0.9 NE 7 7 4 4 - - 0.4
19/11:00pm 6.3 3.9 4.5 88 0.8 NE 6 6 3 3 - - 0.4
19/10:30pm 6.5 4.2 4.8 89 0.7 NE 6 7 3 4 - - 0.4
19/10:00pm 6.1 3.5 4.4 89 0.7 ENE 7 9 4 5 - - 0.4
19/09:30pm 6.8 4.6 5.1 89 0.8 NE 6 6 3 3 - - 0.4
19/09:00pm 6.6 4.1 4.9 89 0.7 ENE 7 7 4 4 - - 0.4
19/08:30pm 7.4 5.3 5.7 89 0.8 NE 6 7 3 4 - - 0.4
19/08:00pm 7.7 5.6 5.8 88 0.9 ENE 6 6 3 3 - - 0.4
19/07:30pm 8.7 7.1 6.2 84 1.2 N 4 6 2 3 - - 0.4
19/07:00pm 9.0 7.4 6.3 83 1.3 N 4 6 2 3 - - 0.4
19/06:30pm 9.2 7.1 6.6 84 1.2 NNE 7 9 4 5 - - 0.4
19/06:00pm 9.4 7.5 6.8 84 1.2 NW 6 11 3 6 - - 0.2
19/05:30pm 10.4 9.3 6.9 79 1.7 NNE 2 6 1 3 - - 0.2
19/05:00pm 10.6 8.7 6.6 76 1.9 N 6 7 3 4 - - 0.2
19/04:30pm 10.8 8.3 6.6 75 2.0 N 9 13 5 7 - - 0.2
19/04:00pm 11.0 8.1 6.4 73 2.2 N 11 17 6 9 - - 0.2
19/03:30pm 12.3 10.1 5.2 62 3.3 E 6 13 3 7 - - 0.2
19/03:00pm 12.9 10.6 4.6 57 3.8 SSE 6 11 3 6 - - 0.2
19/02:30pm 12.4 10.1 4.9 60 3.5 SE 6 11 3 6 - - 0.2
19/02:00pm 13.6 11.9 5.7 59 3.8 E 4 7 2 4 - - 0.2
19/01:30pm 12.4 10.3 5.8 64 3.1 E 6 9 3 5 - - 0.2
19/01:00pm 13.2 11.6 6.3 63 3.3 ENE 4 6 2 3 - - 0.2
19/12:30pm 11.6 9.3 5.5 66 2.8 SE 7 13 4 7 - - 0.2
19/12:00pm 12.5 10.5 7.2 70 2.6 S 7 13 4 7 - - 0.0
19/11:30am 11.6 9.2 6.9 73 2.3 SE 9 11 5 6 - - 0.0
19/11:00am 11.3 8.8 6.4 72 2.3 SSE 9 15 5 8 - - 0.0
19/10:30am 10.8 8.7 6.6 75 2.0 ESE 7 11 4 6 - - 0.0
19/10:00am 10.7 8.5 6.3 74 2.1 E 7 11 4 6 - - 0.0
19/09:30am 10.4 9.1 5.8 73 2.1 W 2 4 1 2 - - 0.0
19/09:00am 8.5 7.1 5.6 82 1.3 WNW 2 2 1 1 - - 0.2
19/08:30am 7.8 5.6 5.3 84 1.1 W 6 7 3 4 - - 0.2
19/08:00am 6.0 3.4 4.0 87 0.9 W 7 7 4 4 - - 0.2
19/07:30am 4.2 1.9 2.6 89 0.7 WSW 4 6 2 3 - - 0.2
19/07:00am 4.1 1.3 2.1 87 0.8 WSW 6 7 3 4 - - 0.2
19/06:30am 4.3 1.5 2.3 87 0.8 W 6 7 3 4 - - 0.2
19/06:00am 4.9 2.2 2.6 85 0.9 WSW 6 6 3 3 - - 0.2
19/05:30am 5.1 2.2 2.6 84 1.0 WSW 7 9 4 5 - - 0.2
19/05:00am 6.0 3.5 3.7 85 1.0 WSW 6 9 3 5 - - 0.2
19/04:30am 4.5 1.6 2.8 89 0.7 W 7 9 4 5 - - 0.2
19/04:00am 3.5 0.1 1.7 88 0.7 W 9 9 5 5 - - 0.2
19/03:30am 4.3 1.0 2.7 89 0.7 W 9 9 5 5 - - 0.2
19/03:00am 4.1 0.4 2.6 90 0.6 W 11 13 6 7 - - 0.2
19/02:30am 4.3 1.0 2.7 89 0.7 W 9 9 5 5 - - 0.2
19/02:00am 4.0 0.7 2.4 89 0.6 W 9 9 5 5 - - 0.2
19/01:30am 4.8 1.6 3.0 88 0.7 WSW 9 11 5 6 - - 0.2
19/01:00am 5.6 2.6 3.9 89 0.7 WSW 9 11 5 6 - - 0.2
19/12:30am 5.4 2.3 3.7 89 0.7 W 9 11 5 6 - - 0.2
19/12:00am 4.8 1.6 3.3 90 0.6 W 9 11 5 6 - - 0.2
 
Date/Time
CST
Temp
°C
App
Temp
°C
Dew
Point
°C
Rel
Hum
%
Delta-T
°C
Wind Press
QNH
hPa
Press
MSL
hPa
Rain since
9am
mm
Dir  Spd
km/h
Gust
km/h
Spd
kts
Gust
kts
18/11:30pm 4.6 1.4 2.9 89 0.7 WSW 9 11 5 6 - - 0.2
18/11:00pm 4.7 1.5 3.2 90 0.6 WSW 9 11 5 6 - - 0.2
18/10:30pm 5.0 1.9 3.5 90 0.6 WSW 9 11 5 6 - - 0.2
18/10:00pm 4.8 1.2 3.0 88 0.7 WSW 11 11 6 6 - - 0.2
18/09:30pm 5.8 2.8 4.0 88 0.8 WSW 9 11 5 6 - - 0.2
18/09:00pm 5.7 2.2 3.7 87 0.8 WSW 11 13 6 7 - - 0.2
18/08:30pm 6.1 2.4 4.3 88 0.8 WSW 13 15 7 8 - - 0.2
18/08:00pm 6.3 3.0 4.3 87 0.9 WSW 11 13 6 7 - - 0.2
18/07:30pm 8.3 5.3 5.8 84 1.1 WSW 11 15 6 8 - - 0.2
18/07:00pm 8.5 4.4 6.1 85 1.1 WSW 17 22 9 12 - - 0.2
18/06:30pm 8.6 4.7 5.4 80 1.5 WSW 15 20 8 11 - - 0.2
18/06:00pm 8.9 4.9 4.9 76 1.8 SW 15 20 8 11 - - 0.2
18/05:30pm 9.8 4.6 5.4 74 2.0 SW 22 33 12 18 - - 0.2
18/05:00pm 10.2 4.9 5.2 71 2.3 SW 22 32 12 17 - - 0.2
18/04:30pm 10.3 4.3 5.1 70 2.4 SW 26 39 14 21 - - 0.2
18/04:00pm 11.4 5.9 5.7 68 2.7 SW 24 39 13 21 - - 0.2
18/03:30pm 10.9 4.2 3.5 60 3.3 SW 28 37 15 20 - - 0.2
18/03:00pm 11.7 5.8 6.0 68 2.7 WSW 26 35 14 19 - - 0.2
18/02:30pm 12.2 6.2 5.4 63 3.2 WSW 26 39 14 21 - - 0.2
18/02:00pm 12.7 6.3 5.4 61 3.4 SW 28 41 15 22 - - 0.2
18/01:31pm 11.8 4.6 5.2 64 3.1 WSW 32 50 17 27 - - 0.2
18/01:30pm 11.8 4.6 5.7 66 2.9 WSW 33 50 18 27 - - 0.2
18/01:00pm 11.7 4.9 5.3 65 3.0 SW 30 41 16 22 - - 0.2
18/12:30pm 11.4 5.2 6.1 70 2.5 WSW 28 39 15 21 - - 0.2
18/12:00pm 11.4 4.7 5.5 67 2.7 WSW 30 44 16 24 - - 0.2
18/11:30am 9.0 2.0 5.9 81 1.4 WSW 32 50 17 27 - - 0.2
18/11:00am 8.9 0.2 3.9 71 2.2 SW 39 69 21 37 - - 0.0
18/10:57am 10.8 3.0 4.7 66 2.8 SW 35 69 19 37 - - 0.0
18/10:30am 10.6 4.1 4.5 66 2.8 SW 28 50 15 27 - - 0.0
18/10:29am 10.9 4.3 4.4 64 2.9 SW 28 50 15 27 - - 0.0
18/10:00am 9.8 4.0 6.3 79 1.6 SW 26 39 14 21 - - 0.0
18/09:44am 9.6 2.9 5.4 75 1.9 SW 30 50 16 27 - - 0.0
18/09:30am 10.2 5.4 5.6 73 2.1 WSW 20 28 11 15 - - 0.0
18/09:00am 9.1 4.2 5.3 77 1.7 WSW 20 35 11 19 - - 10.2
18/08:30am 9.1 4.3 4.9 75 1.9 WSW 19 28 10 15 - - 9.6
18/08:00am 8.3 3.2 3.9 74 1.9 WSW 20 28 11 15 - - 9.6
18/07:30am 7.4 2.3 3.3 75 1.8 WSW 19 24 10 13 - - 9.6
18/07:00am 6.7 1.8 3.9 82 1.2 WSW 19 24 10 13 - - 9.6
18/06:30am 6.8 1.3 3.8 81 1.3 W 22 32 12 17 - - 9.6
18/06:00am 7.3 0.7 4.3 81 1.3 WSW 28 44 15 24 - - 9.6
18/05:52am 7.5 1.7 4.3 80 1.4 WSW 24 44 13 24 - - 9.6
18/05:30am 6.7 2.1 3.9 82 1.2 WSW 17 24 9 13 - - 9.6
18/05:00am 6.9 1.8 4.2 83 1.2 WSW 20 28 11 15 - - 9.6
18/04:30am 6.7 0.8 3.9 82 1.2 WSW 24 33 13 18 - - 9.4
18/04:00am 7.0 1.1 4.0 81 1.3 W 24 35 13 19 - - 9.2
18/03:30am 6.7 0.8 3.7 81 1.3 W 24 30 13 16 - - 9.2
18/03:09am 7.1 0.5 4.2 82 1.3 WSW 28 52 15 28 - - 9.2
18/03:00am 6.6 0.6 3.4 80 1.4 W 24 32 13 17 - - 9.2
18/02:30am 6.8 0.5 3.6 80 1.4 W 26 39 14 21 - - 9.2
18/02:00am 7.0 1.1 4.0 81 1.3 WSW 24 32 13 17 - - 9.2
18/01:31am 7.4 0.9 4.5 82 1.3 W 28 50 15 27 - - 9.2
18/01:30am 7.4 1.2 4.4 81 1.3 W 26 50 14 27 - - 9.2
18/01:00am 7.0 0.2 3.3 77 1.6 WSW 28 41 15 22 - - 9.2
18/12:30am 7.5 -0.5 3.6 76 1.7 WSW 35 48 19 26 - - 9.2
18/12:00am 7.0 1.2 4.3 83 1.2 WSW 24 32 13 17 - - 9.2
 
Date/Time
CST
Temp
°C
App
Temp
°C
Dew
Point
°C
Rel
Hum
%
Delta-T
°C
Wind Press
QNH
hPa
Press
MSL
hPa
Rain since
9am
mm
Dir  Spd
km/h
Gust
km/h
Spd
kts
Gust
kts
17/11:30pm 7.0 1.3 4.7 85 1.0 W 24 32 13 17 - - 9.2
17/11:00pm 7.4 1.7 5.0 85 1.1 WSW 24 33 13 18 - - 9.2
17/10:30pm 8.0 1.4 4.4 78 1.6 WSW 28 41 15 22 - - 8.8
17/10:00pm 7.7 1.3 5.2 84 1.1 W 28 46 15 25 - - 8.8
17/09:30pm 7.6 -0.2 4.9 83 1.2 W 35 57 19 31 - - 8.6
17/09:15pm 7.6 1.0 4.4 80 1.4 WSW 28 46 15 25 - - 8.2
17/09:00pm 7.6 0.6 4.0 78 1.6 W 30 43 16 23 - - 8.2
17/08:30pm 7.7 -1.4 4.1 78 1.6 W 41 69 22 37 - - 8.2
17/08:21pm 8.3 0.0 4.3 76 1.8 W 37 69 20 37 - - 8.2
17/08:18pm 8.2 1.3 4.4 77 1.7 W 30 50 16 27 - - 8.2
17/08:00pm 7.8 0.8 4.2 78 1.6 W 30 41 16 22 - - 8.2
17/07:30pm 7.5 1.1 5.0 84 1.1 W 28 37 15 20 - - 8.2

Other Formats:

Comma delimited format used in spreadsheet applications
http://www.bom.gov.au/fwo/IDS60801/IDS60801.94807.axf

JavaScript Object Notation format (JSON) in row-major order
http://www.bom.gov.au/fwo/IDS60801/IDS60801.94807.json